Latest Coastal Weather Observations for Eucla

IDW60701

Issued at 11:33 pm WST Thursday 19 April 2018 (issued every 10 minutes, with the page automatically refreshed every 10 minutes)

About coastal observations | Map of coastal stations | Coastal observations for WA | Marine services | Other Formats
Station Details ID: 011003 Name: EUCLA Lat: -31.68 Lon: 128.90 Height: 93.1 m
Data from the previous 72 hours. | See also: Recent months at Eucla
Date/Time
WST
Temp
°C
Wind Pressure Rain since
9am
mm
Weather Cloud Vis
km
Sea
Height
m
Swell
Dir  Spd
kts
Gust
kts
hPa Trend Height
m
Period
s
Dir
19/11:30pm 18.5 SE 5 6 1013.6 - 0.2 - - - - - - -
19/11:00pm 18.6 SSE 5 6 1013.8 - 0.2 - - - - - - -
19/10:30pm 18.5 SSE 6 8 1013.7 - 0.2 - - - - - - -
19/10:00pm 18.5 S 6 8 1013.9 - 0.2 - - - - - - -
19/09:30pm 18.5 S 6 8 1013.8 - 0.2 - - - - - - -
19/09:00pm 18.7 S 5 7 1013.8 - 0.2 - - - - - - -
19/08:30pm 18.7 S 7 9 1013.6 - 0.2 - - - - - - -
19/08:00pm 18.6 S 6 8 1013.4 - 0.2 - - - - - - -
19/07:30pm 18.6 S 6 7 1013.1 - 0.2 - - - - - - -
19/07:00pm 18.7 SSE 6 7 1012.9 - 0.2 - - - - - - -
19/06:30pm 18.8 SSE 6 8 1012.5 - 0.2 - - - - - - -
19/06:00pm 18.9 S 6 8 1012.4 - 0.2 - - - - - - -
19/05:30pm 19.5 S 7 9 1012.0 - 0.2 - - - - - - -
19/05:00pm 20.0 S 7 10 1011.6 - 0.2 - - - - - - -
19/04:30pm 20.6 SSE 9 12 1011.1 - 0.2 - - - - - - -
19/04:00pm 21.4 SSE 9 13 1010.9 - 0.2 - - - - - - -
19/03:30pm 21.9 SSE 9 11 1010.6 - 0.2 - - - - - - -
19/03:00pm 22.4 SSE 9 14 1010.6 - 0.2 Fine Mostly clear 40 - - - -
19/02:30pm 23.3 SSE 8 13 1010.5 - 0.2 - - - - - - -
19/02:00pm 24.1 SSE 8 12 1010.5 - 0.2 - - - - - - -
19/01:30pm 24.2 SSE 8 11 1010.5 - 0.2 - - - - - - -
19/01:00pm 24.6 SSE 7 9 1010.4 - 0.2 - - - - - - -
19/12:30pm 24.6 SE 6 9 1010.6 - 0.2 - - - - - - -
19/12:00pm 24.1 SE 6 10 1010.9 - 0.2 - - - - - - -
19/11:30am 23.5 SE 6 9 1011.5 - 0.2 - - - - - - -
19/11:00am 23.5 SSE 7 10 1011.9 - 0.2 - - - - - - -
19/10:30am 22.4 S 7 11 1012.0 - 0.2 - - - - - - -
19/10:00am 21.8 S 8 11 1012.3 - 0.2 - - - - - - -
19/09:30am 22.0 SSE 7 10 1012.3 - 0.0 - - - - - - -
19/09:00am 22.1 SE 7 10 1012.2 - 0.0 Fine Partly cloudy 40 - - - -
19/08:30am 21.1 SE 7 10 1012.3 - 0.0 - - - - - - -
19/08:00am 20.6 SE 8 10 1012.2 - 0.0 - - - - - - -
19/07:30am 19.5 SSE 7 9 1011.9 - 0.0 - - - - - - -
19/07:00am 19.2 SE 7 10 1011.4 - 0.0 - - - - - - -
19/06:30am 18.6 SE 6 8 1011.5 - 0.0 - - - - - - -
19/06:00am 17.8 SSE 7 9 1011.5 - 0.0 - - - - - - -
19/05:30am 17.9 SSE 6 8 1011.4 - 0.0 - - - - - - -
19/05:00am 17.9 SSE 6 8 1011.5 - 0.0 - - - - - - -
19/04:30am 17.9 S 5 6 1011.7 - 0.0 - - - - - - -
19/04:00am 17.9 S 5 6 1011.6 - 0.0 - - - - - - -
19/03:30am 18.2 S 5 6 1011.6 - 0.0 - - - - - - -
19/03:00am 18.1 S 5 7 1011.7 - 0.0 - - - - - - -
19/02:30am 18.2 SW 6 8 1012.0 - 0.0 - - - - - - -
19/02:00am 18.1 SW 5 6 1012.0 - 0.0 - - - - - - -
19/01:30am 18.4 SSE 4 5 1012.1 - 0.0 - - - - - - -
19/01:00am 18.8 SSE 4 5 1012.5 - 0.0 - - - - - - -
19/12:30am 18.9 SSE 5 7 1012.7 - 0.0 - - - - - - -
19/12:00am 17.9 S 3 4 1012.9 - 0.0 - - - - - - -
 
Date/Time
WST
Temp
°C
Wind Pressure Rain since
9am
mm
Weather Cloud Vis
km
Sea
Height
m
Swell
Dir  Spd
kts
Gust
kts
hPa Trend Height
m
Period
s
Dir
18/11:30pm 18.3 S 4 5 1013.0 - 0.0 - - - - - - -
18/11:00pm 18.5 SSW 4 6 1013.3 - 0.0 - - - - - - -
18/10:30pm 17.9 SW 6 8 1013.4 - 0.0 - - - - - - -
18/10:00pm 17.8 WSW 6 8 1013.4 - 0.0 - - - - - - -
18/09:30pm 17.7 WSW 7 9 1013.5 - 0.0 - - - - - - -
18/09:00pm 17.7 WSW 6 7 1013.4 - 0.0 - - - - - - -
18/08:30pm 16.7 SSE 1 5 1013.3 - 0.0 - - - - - - -
18/08:00pm 17.9 E 4 5 1013.0 - 0.0 - - - - - - -
18/07:30pm 19.3 ENE 6 8 1012.6 - 0.0 - - - - - - -
18/07:00pm 19.8 E 6 8 1012.5 - 0.0 - - - - - - -
18/06:30pm 20.0 E 6 8 1012.4 - 0.0 - - - - - - -
18/06:00pm 20.4 ENE 6 8 1012.2 - 0.0 - - - - - - -
18/05:30pm 21.3 E 7 9 1012.0 - 0.0 - - - - - - -
18/05:00pm 21.8 E 6 10 1011.9 - 0.0 - - - - - - -
18/04:30pm 22.4 E 6 9 1011.8 - 0.0 - - - - - - -
18/04:00pm 22.7 ESE 7 9 1011.7 - 0.0 - - - - - - -
18/03:30pm 23.6 SE 7 10 1011.7 - 0.0 - - - - - - -
18/03:00pm 24.6 SE 8 11 1011.6 - 0.0 Fine Mostly clear 40 - - - -
18/02:30pm 24.7 SE 7 10 1011.7 - 0.0 - - - - - - -
18/02:00pm 24.9 SE 8 11 1011.7 - 0.0 - - - - - - -
18/01:30pm 25.3 SE 8 11 1011.6 - 0.0 - - - - - - -
18/01:00pm 25.3 SSE 7 10 1011.9 - 0.0 - - - - - - -
18/12:30pm 26.1 SSE 7 10 1012.1 - 0.0 - - - - - - -
18/12:00pm 25.0 SE 7 10 1012.6 - 0.0 - - - - - - -
18/11:30am 26.0 SSE 7 10 1013.2 - 0.0 - - - - - - -
18/11:00am 24.8 SSE 6 9 1013.7 - 0.0 - - - - - - -
18/10:30am 24.5 SSE 5 7 1014.0 - 0.0 - - - - - - -
18/10:00am 23.7 SSE 2 6 1014.3 - 0.0 - - - - - - -
18/09:30am 25.5 N 5 7 1014.5 - 0.0 - - - - - - -
18/09:00am 25.1 NNE 5 7 1014.7 - 0.2 Fine Mostly cloudy 40 - - - -
18/08:30am 23.0 NNE 4 5 1015.0 - 0.2 - - - - - - -
18/08:00am 21.9 NNE 5 7 1015.2 - 0.2 - - - - - - -
18/07:30am 18.9 NNE 7 10 1015.3 - 0.2 - - - - - - -
18/07:00am 16.8 NNE 7 10 1015.5 - 0.2 - - - - - - -
18/06:30am 15.0 NNE 7 10 1015.5 - 0.2 - - - - - - -
18/06:00am 14.1 NNE 7 10 1015.4 - 0.2 Recent precip. - - - - - -
18/05:30am 14.1 NNE 7 9 1015.5 - 0.2 - - - - - - -
18/05:00am 14.3 NNE 7 9 1015.5 - 0.0 - - - - - - -
18/04:30am 14.4 NNE 7 8 1015.7 - 0.0 - - - - - - -
18/04:00am 14.8 NNE 7 9 1015.6 - 0.0 - - - - - - -
18/03:30am 14.9 NNE 7 9 1015.7 - 0.0 - - - - - - -
18/03:00am 15.0 NE 7 8 1015.8 - 0.0 - - - - - - -
18/02:30am 15.1 NE 6 8 1015.9 - 0.0 - - - - - - -
18/02:00am 15.4 NE 7 9 1016.2 - 0.0 - - - - - - -
18/01:30am 15.7 NE 8 10 1016.6 - 0.0 - - - - - - -
18/01:00am 16.0 NE 7 9 1016.9 - 0.0 - - - - - - -
18/12:30am 16.2 NE 7 9 1017.0 - 0.0 - - - - - - -
18/12:00am 16.5 ENE 7 10 1017.0 - 0.0 - - - - - - -
 
Date/Time
WST
Temp
°C
Wind Pressure Rain since
9am
mm
Weather Cloud Vis
km
Sea
Height
m
Swell
Dir  Spd
kts
Gust
kts
hPa Trend Height
m
Period
s
Dir
17/11:30pm 16.8 ENE 7 11 1017.1 - 0.0 - - - - - - -
17/11:00pm 17.0 ENE 7 9 1017.4 - 0.0 - - - - - - -
17/10:30pm 17.4 ENE 7 8 1017.7 - 0.0 - - - - - - -
17/10:00pm 17.4 ENE 7 11 1017.9 - 0.0 - - - - - - -
17/09:30pm 17.3 ENE 7 9 1018.3 - 0.0 - - - - - - -
17/09:00pm 17.5 ENE 7 9 1018.5 - 0.0 - - - - - - -
17/08:30pm 17.9 ENE 7 9 1018.6 - 0.0 - - - - - - -
17/08:00pm 18.2 ENE 8 12 1018.8 - 0.0 - - - - - - -
17/07:30pm 18.4 ENE 8 10 1018.9 - 0.0 - - - - - - -
17/07:00pm 18.5 E 7 10 1019.0 - 0.0 - - - - - - -
17/06:30pm 18.5 E 8 11 1018.9 - 0.0 - - - - - - -
17/06:00pm 18.5 E 8 13 1018.5 - 0.0 - - - - - - -
17/05:30pm 18.5 E 7 10 1018.2 - 0.0 - - - - - - -
17/05:00pm 18.7 E 8 13 1018.1 - 0.0 - - - - - - -
17/04:30pm 19.1 E 9 14 1017.9 - 0.0 - - - - - - -
17/04:00pm 19.5 ESE 9 13 1017.9 - 0.0 - - - - - - -
17/03:30pm 19.6 E 8 14 1018.0 - 0.0 - - - - - - -
17/03:00pm 20.0 ESE 9 14 1018.1 - 0.0 Fine Mostly cloudy 40 - - - -
17/02:30pm 20.1 ESE 9 13 1018.2 - 0.0 - - - - - - -
17/02:00pm 20.3 ESE 10 14 1018.2 - 0.0 - - - - - - -
17/01:30pm 20.7 ESE 10 15 1018.2 - 0.0 - - - - - - -
17/01:00pm 21.0 ESE 9 14 1018.5 - 0.0 - - - - - - -
17/12:30pm 21.9 ESE 9 14 1018.9 - 0.0 - - - - - - -
17/12:00pm 22.0 NE 5 8 1019.4 - 0.0 - - - - - - -
17/11:30am 22.5 ENE 6 9 1019.8 - 0.0 - - - - - - -
17/11:00am 22.5 NE 6 10 1020.2 - 0.0 - - - - - - -
17/10:30am 20.8 NE 7 10 1020.7 - 0.0 - - - - - - -
17/10:00am 21.0 NE 7 10 1021.0 - 0.0 - - - - - - -
17/09:30am 19.9 NE 8 11 1021.4 - 0.0 - - - - - - -
17/09:00am 20.1 NE 9 14 1021.7 - 1.0 Fine Partly cloudy 40 - - - -
17/08:30am 19.9 NE 9 13 1022.0 - 1.0 - - - - - - -
17/08:00am 18.5 NE 7 13 1022.1 - 1.0 - - - - - - -
17/07:30am 17.3 NE 9 15 1022.1 - 1.0 - - - - - - -
17/07:00am 16.3 NE 8 11 1021.9 - 1.0 - - - - - - -
17/06:30am 15.4 NNE 7 9 1021.9 - 1.0 - - - - - - -
17/06:00am 15.4 NNE 6 7 1021.8 - 1.0 - - - - - - -
17/05:30am 15.7 NE 6 8 1021.6 - 1.0 - - - - - - -
17/05:00am 16.0 NNE 5 7 1021.6 - 1.0 - - - - - - -
17/04:30am 15.9 ENE 5 7 1021.2 - 1.0 - - - - - - -
17/04:00am 16.1 ENE 5 6 1021.1 - 1.0 - - - - - - -
17/03:30am 16.4 ENE 6 8 1020.7 - 1.0 - - - - - - -
17/03:00am 16.5 ENE 5 8 1020.8 - 1.0 Rain - - - - - -
17/02:30am 16.7 ENE 8 11 1020.6 - 0.8 - - - - - - -
17/02:00am 16.8 E 6 9 1020.8 - 0.8 - - - - - - -
17/01:30am 17.0 E 6 9 1021.1 - 0.8 - - - - - - -
17/01:00am 17.0 E 7 10 1021.5 - 0.6 - - - - - - -
17/12:30am 17.1 E 8 13 1021.7 - 0.6 - - - - - - -
17/12:00am 17.0 E 7 14 1021.9 - 0.4 - - - - - - -

Other Formats:

Comma delimited format used in spreadsheet applications
http://www.bom.gov.au/fwo/IDW60701/IDW60701.94647.axf

JavaScript Object Notation format (JSON) in row-major order
http://www.bom.gov.au/fwo/IDW60701/IDW60701.94647.json